createdAt,value
2023-02-15T00:00:11.815Z,2.98
2023-02-15T00:02:40.156Z,2.96
2023-02-15T00:05:08.007Z,2.97
2023-02-15T00:07:35.085Z,2.92
2023-02-15T00:10:02.050Z,2.90
2023-02-15T00:12:29.167Z,2.89
2023-02-15T00:14:55.900Z,2.89
2023-02-15T00:17:23.072Z,2.84
2023-02-15T00:19:50.527Z,2.79
2023-02-15T00:22:17.341Z,2.69
2023-02-15T00:24:44.206Z,2.62
2023-02-15T00:27:11.137Z,2.59
2023-02-15T00:29:38.172Z,2.60
2023-02-15T00:32:05.877Z,2.62
2023-02-15T00:34:32.745Z,2.65
2023-02-15T00:36:59.847Z,2.64
2023-02-15T00:39:28.844Z,2.58
2023-02-15T00:41:55.769Z,2.54
2023-02-15T00:44:22.727Z,2.54
2023-02-15T00:46:49.853Z,2.56
2023-02-15T00:49:16.796Z,2.56
2023-02-15T00:51:43.763Z,2.54
2023-02-15T00:54:11.003Z,2.47
2023-02-15T00:56:37.923Z,2.37
2023-02-15T00:59:05.008Z,2.32
2023-02-15T01:01:31.980Z,2.30
2023-02-15T01:03:59.089Z,2.30
2023-02-15T01:06:25.999Z,2.26
2023-02-15T01:08:53.090Z,2.21
2023-02-15T01:11:25.888Z,2.17
2023-02-15T01:13:55.045Z,2.20
2023-02-15T01:16:23.059Z,2.22
2023-02-15T01:18:50.451Z,2.24
2023-02-15T01:21:20.671Z,2.25
2023-02-15T01:23:48.045Z,2.24
2023-02-15T01:26:15.607Z,2.29
2023-02-15T01:28:42.742Z,2.33
2023-02-15T01:31:12.569Z,2.31
2023-02-15T01:33:40.406Z,2.30
2023-02-15T01:36:19.650Z,2.30
2023-02-15T01:38:52.770Z,2.26
2023-02-15T01:41:27.512Z,2.23
2023-02-15T01:43:59.627Z,2.18
2023-02-15T01:46:52.770Z,2.11
2023-02-15T01:49:26.458Z,2.04
2023-02-15T01:51:54.118Z,2.01
2023-02-15T01:54:32.536Z,1.96
2023-02-15T01:57:10.636Z,1.93
2023-02-15T01:59:40.796Z,1.91
2023-02-15T02:02:11.289Z,1.93
2023-02-15T02:04:47.611Z,1.98
2023-02-15T02:07:17.495Z,2.01
2023-02-15T02:09:45.728Z,2.05
2023-02-15T02:12:13.946Z,2.02
2023-02-15T02:14:42.942Z,2.00
2023-02-15T02:17:18.936Z,1.98
2023-02-15T02:20:07.809Z,1.96
2023-02-15T02:23:07.306Z,1.87
2023-02-15T02:25:52.475Z,1.77
2023-02-15T02:29:20.767Z,1.67
2023-02-15T02:32:25.006Z,1.55
2023-02-15T02:35:10.751Z,1.48
2023-02-15T02:37:55.729Z,1.40
2023-02-15T02:41:09.088Z,1.32
2023-02-15T02:44:05.928Z,1.27
2023-02-15T02:46:46.886Z,1.22
2023-02-15T02:49:13.814Z,1.20
2023-02-15T02:51:40.661Z,1.21
2023-02-15T02:54:08.928Z,1.21
2023-02-15T02:56:44.672Z,1.22
2023-02-15T02:59:20.845Z,1.19
2023-02-15T03:02:02.288Z,1.16
2023-02-15T03:04:41.545Z,1.11
2023-02-15T03:07:13.315Z,1.08
2023-02-15T03:09:44.204Z,1.00
2023-02-15T03:12:26.031Z,0.94
2023-02-15T03:14:57.286Z,0.88
2023-02-15T03:17:27.833Z,0.84
2023-02-15T03:19:59.139Z,0.79
2023-02-15T03:22:37.458Z,0.75
2023-02-15T03:25:11.267Z,0.71
2023-02-15T03:27:46.527Z,0.70
2023-02-15T03:30:16.467Z,0.72
2023-02-15T03:32:45.874Z,0.73
2023-02-15T03:35:12.865Z,0.73
2023-02-15T03:37:49.232Z,0.72
2023-02-15T03:41:00.332Z,0.71
2023-02-15T03:43:42.410Z,0.69
2023-02-15T03:46:20.427Z,0.71
2023-02-15T03:49:00.146Z,0.67
2023-02-15T03:51:37.856Z,0.60
2023-02-15T03:54:45.231Z,0.55
2023-02-15T03:57:43.394Z,0.49
2023-02-15T04:00:42.703Z,0.44
2023-02-15T04:03:27.478Z,0.35
2023-02-15T04:05:54.316Z,0.26
2023-02-15T04:08:21.137Z,0.18
2023-02-15T04:10:54.045Z,0.09
2023-02-15T04:13:22.689Z,0.00
2023-02-15T04:16:06.010Z,-0.06
2023-02-15T04:18:54.920Z,-0.12
2023-02-15T04:21:42.107Z,-0.16
2023-02-15T04:24:29.029Z,-0.19
2023-02-15T04:26:57.189Z,-0.20
2023-02-15T04:29:25.594Z,-0.19
2023-02-15T04:31:54.127Z,-0.15
2023-02-15T04:34:21.106Z,-0.15
2023-02-15T04:36:48.265Z,-0.19
2023-02-15T04:39:16.646Z,-0.25
2023-02-15T04:41:43.910Z,-0.31
2023-02-15T04:44:10.893Z,-0.38
2023-02-15T04:46:37.990Z,-0.44
2023-02-15T04:49:04.985Z,-0.50
2023-02-15T04:51:31.877Z,-0.55
2023-02-15T04:53:58.769Z,-0.61
2023-02-15T04:56:25.626Z,-0.72
2023-02-15T04:58:52.475Z,-0.78
2023-02-15T05:01:19.641Z,-0.84
2023-02-15T05:03:46.546Z,-0.89
2023-02-15T05:06:13.478Z,-0.91
2023-02-15T05:08:40.438Z,-0.93
2023-02-15T05:11:07.384Z,-0.96
2023-02-15T05:13:34.430Z,-1.04
2023-02-15T05:16:01.932Z,-1.08
2023-02-15T05:18:29.013Z,-1.05
2023-02-15T05:20:55.852Z,-1.03
2023-02-15T05:23:22.709Z,-1.06
2023-02-15T05:26:09.861Z,-1.04
2023-02-15T05:28:37.788Z,-1.04
2023-02-15T05:31:04.954Z,-1.06
2023-02-15T05:33:32.764Z,-1.10
2023-02-15T05:36:00.806Z,-1.16
2023-02-15T05:38:28.874Z,-1.19
2023-02-15T05:40:56.392Z,-1.24
2023-02-15T05:43:23.870Z,-1.29
2023-02-15T05:45:53.770Z,-1.42
2023-02-15T05:48:22.475Z,-1.53
2023-02-15T05:50:59.795Z,-1.55
2023-02-15T05:53:27.814Z,-1.53
2023-02-15T05:55:55.354Z,-1.49
2023-02-15T05:58:22.313Z,-1.42
2023-02-15T06:00:49.543Z,-1.36
2023-02-15T06:03:16.417Z,-1.30
2023-02-15T06:05:43.430Z,-1.22
2023-02-15T06:08:10.271Z,-1.16
2023-02-15T06:10:37.115Z,-1.10
2023-02-15T06:13:03.970Z,-1.03
2023-02-15T06:15:30.831Z,-0.97
2023-02-15T06:17:58.043Z,-0.91
2023-02-15T06:20:25.735Z,-0.85
2023-02-15T06:22:52.781Z,-0.82
2023-02-15T06:25:20.104Z,-0.79
2023-02-15T06:27:47.141Z,-0.78
2023-02-15T06:30:14.819Z,-0.76
2023-02-15T06:32:42.234Z,-0.76
2023-02-15T06:35:09.570Z,-0.73
2023-02-15T06:37:37.065Z,-0.69
2023-02-15T06:40:05.441Z,-0.64
2023-02-15T06:42:32.696Z,-0.57
2023-02-15T06:45:01.523Z,-0.48
2023-02-15T06:47:28.732Z,-0.40
2023-02-15T06:49:55.753Z,-0.31
2023-02-15T06:52:23.227Z,-0.23
2023-02-15T06:54:50.275Z,-0.14
2023-02-15T06:57:17.261Z,-0.11
2023-02-15T06:59:44.271Z,-0.09
2023-02-15T07:02:14.890Z,-0.10
2023-02-15T07:04:41.867Z,-0.06
2023-02-15T07:07:12.801Z,-0.02
2023-02-15T07:09:40.450Z,0.01
2023-02-15T07:12:27.487Z,0.01
2023-02-15T07:14:54.927Z,0.06
2023-02-15T07:17:36.786Z,0.11
2023-02-15T13:00:36.308Z,20.07
2023-02-15T13:03:08.568Z,20.14
2023-02-15T13:05:41.713Z,19.94
2023-02-15T13:08:28.478Z,19.79
2023-02-15T13:11:03.599Z,19.29
2023-02-15T13:13:35.583Z,18.97
2023-02-15T13:16:15.395Z,18.74
2023-02-15T13:18:47.807Z,18.55
2023-02-15T13:21:28.951Z,18.37
2023-02-15T13:24:25.045Z,18.03
2023-02-15T13:27:12.893Z,17.69
2023-02-15T13:29:46.122Z,17.16
2023-02-15T13:32:34.897Z,16.81
2023-02-15T13:35:06.381Z,16.38
2023-02-15T13:37:52.392Z,15.84
2023-02-15T13:40:26.677Z,15.20
2023-02-15T13:43:31.874Z,14.82
2023-02-15T13:46:43.119Z,14.39
2023-02-15T13:49:22.256Z,13.95
2023-02-15T13:52:20.122Z,13.52
2023-02-15T13:55:13.503Z,13.01
2023-02-15T13:57:40.320Z,12.61
2023-02-15T14:00:19.568Z,12.38
2023-02-15T14:03:02.898Z,12.15
2023-02-15T14:05:48.969Z,11.85
2023-02-15T14:08:58.527Z,11.60
2023-02-15T14:11:52.835Z,11.24
2023-02-15T14:14:52.510Z,10.97
2023-02-15T14:17:50.912Z,10.78
2023-02-15T14:20:43.116Z,10.57
2023-02-15T14:23:32.073Z,10.43
2023-02-15T14:26:11.325Z,10.24
2023-02-15T14:28:44.610Z,10.06
2023-02-15T14:31:15.170Z,9.93
2023-02-15T14:33:55.595Z,9.81
2023-02-15T14:36:36.966Z,9.62
2023-02-15T14:39:41.483Z,9.50
2023-02-15T14:42:36.701Z,9.37
2023-02-15T14:45:12.811Z,9.15
2023-02-15T14:47:44.582Z,8.99
2023-02-15T14:50:39.064Z,8.89
2023-02-15T14:53:37.791Z,8.78
2023-02-15T14:56:20.808Z,8.63
2023-02-15T14:58:51.454Z,8.49
2023-02-15T15:01:28.137Z,8.34
2023-02-15T15:03:59.806Z,8.23
2023-02-15T15:06:28.135Z,8.11
2023-02-15T15:09:19.773Z,8.07
2023-02-15T15:11:52.108Z,7.95
2023-02-15T15:14:34.347Z,7.83
2023-02-15T15:17:06.984Z,7.72
2023-02-15T15:19:51.915Z,7.61
2023-02-15T15:22:27.711Z,7.50
2023-02-15T15:24:55.885Z,7.38
2023-02-15T15:27:53.394Z,7.29
2023-02-15T15:30:20.419Z,7.19
2023-02-15T15:32:57.531Z,7.14
2023-02-15T15:35:45.826Z,7.03
2023-02-15T15:38:31.493Z,6.92
2023-02-15T15:41:18.811Z,6.77
2023-02-15T15:44:16.576Z,6.61
2023-02-15T15:46:55.333Z,6.52
2023-02-15T15:49:28.755Z,6.42
2023-02-15T15:51:56.295Z,6.30
2023-02-15T15:54:27.690Z,6.20
2023-02-15T15:57:02.328Z,6.08
2023-02-15T15:59:32.682Z,5.97
2023-02-15T16:02:08.810Z,5.85
2023-02-15T16:04:37.003Z,5.73
2023-02-15T16:07:19.285Z,5.65
2023-02-15T16:10:09.399Z,5.55
2023-02-15T16:12:39.252Z,5.42
2023-02-15T16:15:16.885Z,5.33
2023-02-15T16:17:46.722Z,5.24
2023-02-15T16:20:30.391Z,5.16
2023-02-15T16:23:22.341Z,5.09
2023-02-15T16:26:20.933Z,5.00
2023-02-15T16:28:55.928Z,4.88
2023-02-15T16:31:24.328Z,4.80
2023-02-15T16:33:55.751Z,4.73
2023-02-15T16:36:30.554Z,4.67
2023-02-15T16:38:57.908Z,4.63
2023-02-15T16:41:28.703Z,4.57
2023-02-15T16:43:59.917Z,4.51
2023-02-15T16:46:34.362Z,4.47
2023-02-15T16:49:07.465Z,4.44
2023-02-15T16:51:41.647Z,4.37
2023-02-15T16:54:17.417Z,4.27
2023-02-15T16:56:47.544Z,4.20
2023-02-15T16:59:40.964Z,4.13
2023-02-15T17:02:40.105Z,4.02
2023-02-15T17:05:11.887Z,3.92
2023-02-15T17:07:49.643Z,3.86
2023-02-15T17:10:42.830Z,3.78
2023-02-15T17:13:17.949Z,3.72
2023-02-15T17:16:25.022Z,3.64
2023-02-15T17:18:53.778Z,3.55
2023-02-15T17:21:25.943Z,3.49
2023-02-15T17:24:01.402Z,3.42
2023-02-15T17:26:31.936Z,3.35
2023-02-15T17:29:21.100Z,3.29
2023-02-15T17:31:51.887Z,3.20
2023-02-15T17:34:43.042Z,3.14
2023-02-15T17:37:44.182Z,3.09
2023-02-15T17:40:29.798Z,3.08
2023-02-15T17:42:57.697Z,3.07
2023-02-15T17:45:29.159Z,3.06
2023-02-15T17:47:58.377Z,3.05
2023-02-15T17:50:28.603Z,3.05
2023-02-15T17:52:57.989Z,3.01
2023-02-15T17:55:41.540Z,2.98
2023-02-15T17:58:12.107Z,2.92
2023-02-15T18:01:08.028Z,2.87
2023-02-15T18:04:10.145Z,2.78
2023-02-15T18:06:58.980Z,2.69
2023-02-15T18:09:45.098Z,2.63
2023-02-15T18:12:24.584Z,2.56
2023-02-15T18:14:54.598Z,2.51
2023-02-15T18:17:35.145Z,2.45
2023-02-15T18:20:19.621Z,2.39
2023-02-15T18:22:47.553Z,2.36
2023-02-15T18:25:17.324Z,2.36
2023-02-15T18:27:44.856Z,2.36
2023-02-15T18:30:17.171Z,2.36
2023-02-15T18:32:46.595Z,2.36
2023-02-15T18:35:20.287Z,2.36
2023-02-15T18:37:48.009Z,2.34
2023-02-15T18:40:36.382Z,2.34
2023-02-15T18:43:03.447Z,2.29
2023-02-15T18:45:35.596Z,2.23
2023-02-15T18:48:02.530Z,2.19
2023-02-15T18:50:33.787Z,2.13
2023-02-15T18:53:04.589Z,2.07
2023-02-15T18:55:35.767Z,2.00
2023-02-15T18:58:03.069Z,1.95
2023-02-15T19:00:33.912Z,1.89
2023-02-15T19:03:02.329Z,1.85
2023-02-15T19:05:31.311Z,1.80
2023-02-15T19:08:00.976Z,1.77
2023-02-15T19:10:30.892Z,1.74
2023-02-15T19:12:58.492Z,1.72
2023-02-15T19:15:28.422Z,1.73
2023-02-15T19:17:56.138Z,1.73
2023-02-15T19:20:26.177Z,1.74
2023-02-15T19:23:00.008Z,1.74
2023-02-15T19:25:41.547Z,1.75
2023-02-15T19:28:42.489Z,1.75
2023-02-15T19:31:13.442Z,1.69
2023-02-15T19:33:41.273Z,1.63
2023-02-15T19:36:17.689Z,1.58
2023-02-15T19:38:50.527Z,1.52
2023-02-15T19:41:34.646Z,1.45
2023-02-15T19:44:01.834Z,1.39
2023-02-15T19:46:29.045Z,1.32
2023-02-15T19:48:56.026Z,1.27
2023-02-15T19:51:24.499Z,1.24
2023-02-15T19:53:52.369Z,1.21
2023-02-15T19:56:24.406Z,1.20
2023-02-15T19:58:58.338Z,1.20
2023-02-15T20:01:25.939Z,1.21
2023-02-15T20:03:54.317Z,1.21
2023-02-15T20:06:22.223Z,1.22
2023-02-15T20:08:49.821Z,1.23
2023-02-15T20:11:16.939Z,1.19
2023-02-15T20:13:44.162Z,1.18
2023-02-15T20:16:12.006Z,1.15
2023-02-15T20:18:39.347Z,1.10
2023-02-15T20:21:11.740Z,1.06
2023-02-15T20:23:38.921Z,1.05
2023-02-15T20:26:18.583Z,1.04
2023-02-15T20:28:47.147Z,1.04
2023-02-15T20:31:17.289Z,1.04
2023-02-15T20:33:44.511Z,1.04
2023-02-15T20:36:17.041Z,1.03
2023-02-15T20:38:45.026Z,0.99
2023-02-15T20:41:36.280Z,0.94
2023-02-15T20:44:18.221Z,0.88
2023-02-15T20:46:45.669Z,0.83
2023-02-15T20:49:13.073Z,0.80
2023-02-15T20:51:41.998Z,0.74
2023-02-15T20:54:13.751Z,0.68
2023-02-15T20:56:41.078Z,0.62
2023-02-15T20:59:24.872Z,0.59
2023-02-15T21:01:55.664Z,0.60
2023-02-15T21:04:28.063Z,0.60
2023-02-15T21:06:55.864Z,0.60
2023-02-15T21:09:22.866Z,0.60
2023-02-15T21:11:53.203Z,0.62
2023-02-15T21:14:22.876Z,0.63
2023-02-15T21:16:51.195Z,0.60
2023-02-15T21:19:20.943Z,0.57
2023-02-15T21:21:50.488Z,0.54
2023-02-15T21:24:23.450Z,0.49
2023-02-15T21:26:50.967Z,0.42
2023-02-15T21:29:36.791Z,0.38
2023-02-15T21:32:04.717Z,0.34
2023-02-15T21:34:31.747Z,0.31
2023-02-15T21:36:59.742Z,0.30
2023-02-15T21:39:29.516Z,0.30
2023-02-15T21:42:15.585Z,0.31
2023-02-15T21:45:01.347Z,0.33
2023-02-15T21:47:49.665Z,0.33
2023-02-15T21:50:42.229Z,0.34
2023-02-15T21:53:46.312Z,0.35
2023-02-15T21:56:18.532Z,0.32
2023-02-15T21:58:45.629Z,0.29
2023-02-15T22:01:25.805Z,0.25
2023-02-15T22:03:55.131Z,0.22
2023-02-15T22:06:22.333Z,0.17
2023-02-15T22:08:49.373Z,0.12
2023-02-15T22:11:24.920Z,0.08
2023-02-15T22:13:51.978Z,0.06
2023-02-15T22:16:22.437Z,0.05
2023-02-15T22:18:49.853Z,0.05
2023-02-15T22:21:16.990Z,0.05
2023-02-15T22:23:44.139Z,0.05
2023-02-15T22:26:25.695Z,0.07
2023-02-15T22:28:52.982Z,0.08
2023-02-15T22:31:22.794Z,0.09
2023-02-15T22:33:51.493Z,0.11
2023-02-15T22:36:25.391Z,0.10
2023-02-15T22:38:53.551Z,0.10
2023-02-15T22:41:22.787Z,0.06
2023-02-15T22:43:50.744Z,0.03
2023-02-15T22:46:21.540Z,-0.01
2023-02-15T22:48:48.889Z,-0.04
2023-02-15T22:51:20.338Z,-0.06
2023-02-15T22:53:50.043Z,-0.08
2023-02-15T22:56:20.545Z,-0.08
2023-02-15T22:58:50.676Z,-0.08
2023-02-15T23:01:31.508Z,-0.06
2023-02-15T23:04:00.554Z,-0.04
2023-02-15T23:06:29.376Z,-0.02
2023-02-15T23:08:57.540Z,0.00
2023-02-15T23:11:24.579Z,0.03
2023-02-15T23:13:51.800Z,0.06
2023-02-15T23:16:19.209Z,0.06
2023-02-15T23:18:47.855Z,0.02
2023-02-15T23:21:21.066Z,-0.02
2023-02-15T23:23:51.230Z,-0.04
2023-02-15T23:26:30.425Z,-0.07
2023-02-15T23:29:01.844Z,-0.11
2023-02-15T23:31:32.445Z,-0.15
2023-02-15T23:34:12.915Z,-0.18
2023-02-15T23:36:40.401Z,-0.17
2023-02-15T23:39:34.896Z,-0.17
2023-02-15T23:42:05.212Z,-0.16
2023-02-15T23:44:32.971Z,-0.14
2023-02-15T23:46:59.783Z,-0.10
2023-02-15T23:49:26.775Z,-0.07
2023-02-15T23:51:56.462Z,-0.04
2023-02-15T23:54:26.167Z,-0.01
2023-02-15T23:56:56.012Z,0.00
2023-02-15T23:59:25.505Z,0.01
